Time;durP1;ratioP1;P1;durP2;ratioP2;P2;SDS_P1;SDS_P2;PMS_P1;PMS_P2;Temp;Humidity;BMP_temperature;BMP_pressure;BME280_temperature;BME280_humidity;BME280_pressure;Samples;Min_cycle;Max_cycle;Signal;HPM_P1;HPM_P2
2021/01/02 00:01:22;;;;;;;3.50;2.80;;;;;;;4.48;67.49;100334.88;1686229;84;21269;-94
2021/01/02 00:10:55;;;;;;;3.10;1.97;;;;;;;4.70;67.31;100349.47;1628935;86;21222;-95
2021/01/02 00:18:09;;;;;;;4.97;3.00;;;;;;;4.66;67.70;100356.03;1721102;79;21127;-94
2021/01/02 00:21:30;;;;;;;2.90;2.70;;;;;;;4.66;67.83;100361.31;1712717;81;21341;-93
2021/01/02 00:28:22;;;;;;;3.93;2.63;;;;;;;4.68;68.01;100369.91;1719993;81;21262;-93
2021/01/02 00:32:14;;;;;;;5.37;3.13;;;;;;;4.87;67.83;100375.55;1715088;81;21466;-94
2021/01/02 00:35:28;;;;;;;6.93;4.90;;;;;;;4.90;67.75;100379.22;1715013;81;21097;-94
2021/01/02 00:42:41;;;;;;;5.73;4.73;;;;;;;4.79;68.32;100394.79;1573023;87;23571;-92
2021/01/02 00:49:48;;;;;;;5.83;5.10;;;;;;;4.67;68.13;100408.70;1600163;89;21027;-96
2021/01/02 00:56:52;;;;;;;8.20;5.57;;;;;;;4.72;67.93;100411.38;1577232;88;21191;-94
2021/01/02 01:00:07;;;;;;;6.10;5.00;;;;;;;4.91;67.65;100404.64;1806354;77;22933;-94
2021/01/02 01:03:31;;;;;;;7.00;6.03;;;;;;;4.86;67.59;100405.59;1679762;80;21200;-94
2021/01/02 01:06:04;;;;;;;9.17;6.13;;;;;;;4.83;67.47;100417.27;1700999;82;21049;-93
2021/01/02 01:08:36;;;;;;;8.67;6.43;;;;;;;4.82;67.50;100413.45;1675240;84;21295;-91
2021/01/02 01:11:11;;;;;;;7.20;5.30;;;;;;;4.80;67.19;100418.06;1673473;84;21230;-93
2021/01/02 01:13:43;;;;;;;6.53;5.50;;;;;;;4.76;66.93;100420.16;1684973;80;21316;-88
2021/01/02 01:16:11;;;;;;;5.70;4.67;;;;;;;4.68;67.17;100414.80;1675191;84;21224;-92
2021/01/02 01:18:51;;;;;;;8.20;5.63;;;;;;;4.67;66.99;100422.37;1658671;83;21247;-90
2021/01/02 01:21:20;;;;;;;7.27;5.63;;;;;;;4.60;66.84;100418.68;1697128;83;21333;-91
2021/01/02 01:37:32;;;;;;;5.70;4.80;;;;;;;4.40;66.22;100433.27;1695828;81;22676;-92
2021/01/02 01:40:33;;;;;;;6.67;4.47;;;;;;;4.33;66.40;100431.37;1821569;76;22950;-90
2021/01/02 01:43:05;;;;;;;6.80;4.27;;;;;;;4.28;66.62;100443.20;1757314;79;21138;-91
2021/01/02 01:45:50;;;;;;;6.03;4.70;;;;;;;4.29;66.57;100446.66;1747048;78;21184;-88
2021/01/02 01:48:26;;;;;;;7.13;5.03;;;;;;;4.31;66.75;100450.48;1730928;80;21581;-94
2021/01/02 01:51:59;;;;;;;7.73;6.00;;;;;;;4.47;66.13;100444.09;1804119;77;23019;-93
2021/01/02 01:54:51;;;;;;;6.53;5.70;;;;;;;4.52;66.11;100451.56;1748946;76;21121;-93
2021/01/02 01:57:24;;;;;;;6.00;5.40;;;;;;;4.52;66.21;100455.52;1795999;77;21490;-93
2021/01/02 02:03:02;;;;;;;8.10;6.07;;;;;;;4.48;66.21;100462.44;1768329;79;24285;-88
2021/01/02 02:05:38;;;;;;;6.40;5.73;;;;;;;4.48;65.87;100476.95;1748728;79;21096;-90
2021/01/02 02:08:10;;;;;;;7.77;5.57;;;;;;;4.44;65.81;100476.88;1664497;85;21223;-88
2021/01/02 02:13:44;;;;;;;7.97;5.87;;;;;;;4.37;65.64;100482.88;1804455;78;22429;-93
2021/01/02 02:16:13;;;;;;;9.90;5.93;;;;;;;4.25;65.82;100492.78;1791136;79;21156;-92
2021/01/02 02:18:48;;;;;;;7.47;5.70;;;;;;;4.36;65.76;100493.93;1710900;80;21177;-94
2021/01/02 02:21:23;;;;;;;7.00;5.17;;;;;;;4.43;65.46;100495.52;1706415;81;21532;-93
2021/01/02 02:24:02;;;;;;;6.30;4.77;;;;;;;4.37;64.99;100491.65;1677774;80;21246;-95
2021/01/02 02:26:36;;;;;;;6.03;4.93;;;;;;;4.31;65.30;100504.57;1698242;81;21130;-92
2021/01/02 02:29:22;;;;;;;7.57;5.13;;;;;;;4.26;65.68;100508.97;1705745;81;21310;-94
2021/01/02 02:31:54;;;;;;;5.90;5.20;;;;;;;4.25;65.52;100512.58;1708609;81;21341;-93
2021/01/02 02:34:27;;;;;;;8.87;6.00;;;;;;;4.20;65.32;100508.20;1649920;84;21187;-93
2021/01/02 02:36:55;;;;;;;6.53;5.23;;;;;;;4.13;65.00;100511.09;1651978;82;21159;-93
2021/01/02 02:39:23;;;;;;;5.70;4.13;;;;;;;4.06;64.92;100518.23;1621961;85;21171;-91
2021/01/02 02:44:51;;;;;;;5.43;4.10;;;;;;;4.01;64.65;100523.12;1770513;79;23068;-94
2021/01/02 02:47:22;;;;;;;4.43;4.00;;;;;;;4.06;64.42;100527.46;1760463;79;21160;-94
2021/01/02 02:49:53;;;;;;;6.00;4.57;;;;;;;4.09;64.12;100536.42;1741738;80;21176;-94
2021/01/02 02:52:38;;;;;;;5.87;4.80;;;;;;;4.01;64.28;100538.95;1766825;79;21287;-93
2021/01/02 02:55:17;;;;;;;5.10;4.30;;;;;;;3.94;64.05;100534.34;1728294;80;21129;-92
2021/01/02 02:58:10;;;;;;;8.50;5.20;;;;;;;3.86;64.20;100542.96;1665021;83;21292;-90
2021/01/02 03:00:38;;;;;;;6.70;4.33;;;;;;;3.79;64.36;100544.52;1691693;83;21350;-90
2021/01/02 03:03:09;;;;;;;7.50;5.07;;;;;;;3.77;64.29;100551.23;1693379;83;21323;-90
2021/01/02 03:05:38;;;;;;;6.43;5.53;;;;;;;3.74;64.11;100554.64;1678750;82;21136;-91
2021/01/02 03:08:08;;;;;;;5.77;5.17;;;;;;;3.72;64.31;100553.95;1675416;84;21345;-90
2021/01/02 03:10:36;;;;;;;6.50;5.27;;;;;;;3.69;64.44;100563.80;1681798;84;21172;-89
2021/01/02 03:13:03;;;;;;;7.07;4.70;;;;;;;3.66;64.20;100569.83;1679685;84;21164;-90
2021/01/02 03:15:37;;;;;;;10.20;6.37;;;;;;;3.68;64.20;100578.43;1682243;84;21216;-92
2021/01/02 03:18:08;;;;;;;8.68;6.30;;;;;;;3.80;64.15;100578.63;1680671;84;21822;-90
2021/01/02 03:20:37;;;;;;;5.90;4.80;;;;;;;3.85;64.14;100576.42;1679152;84;21188;-90
2021/01/02 03:23:04;;;;;;;7.00;5.90;;;;;;;3.80;64.40;100584.39;1675412;84;21515;-89
2021/01/02 03:25:33;;;;;;;6.17;5.43;;;;;;;3.79;64.58;100589.34;1677491;84;21197;-89
2021/01/02 03:28:03;;;;;;;5.10;4.57;;;;;;;3.71;64.06;100587.36;1668419;84;21224;-91
2021/01/02 03:30:31;;;;;;;5.57;5.07;;;;;;;3.63;64.34;100592.50;1684070;84;21215;-89
2021/01/02 03:32:58;;;;;;;6.00;5.30;;;;;;;3.57;64.26;100588.61;1685705;84;21783;-91
2021/01/02 03:35:26;;;;;;;7.17;5.20;;;;;;;3.51;64.55;100589.16;1678863;84;21245;-89
2021/01/02 03:37:53;;;;;;;9.33;6.70;;;;;;;3.47;64.76;100588.59;1652985;84;21211;-90
2021/01/02 03:40:23;;;;;;;10.17;6.30;;;;;;;3.46;64.96;100591.36;1702696;83;21467;-89
2021/01/02 03:42:50;;;;;;;7.40;5.77;;;;;;;3.47;65.17;100595.68;1698194;83;21686;-90
2021/01/02 03:45:21;;;;;;;12.23;6.93;;;;;;;3.54;65.04;100587.55;1680716;84;21205;-91
2021/01/02 03:47:51;;;;;;;10.27;6.87;;;;;;;3.70;64.75;100596.26;1678550;84;21220;-91
2021/01/02 03:50:21;;;;;;;8.63;6.77;;;;;;;3.68;64.64;100602.98;1677718;84;21209;-91
2021/01/02 03:52:48;;;;;;;6.83;5.93;;;;;;;3.58;64.61;100604.78;1711258;83;22156;-93
2021/01/02 03:55:15;;;;;;;5.90;5.30;;;;;;;3.53;64.78;100608.80;1680258;84;21274;-92
2021/01/02 03:57:43;;;;;;;6.80;5.33;;;;;;;3.46;64.38;100613.77;1682868;85;21235;-92
2021/01/02 04:00:12;;;;;;;9.37;7.10;;;;;;;3.36;64.22;100611.61;1678416;85;21269;-90
2021/01/02 04:02:39;;;;;;;8.37;7.00;;;;;;;3.25;64.36;100619.13;1706808;83;22300;-88
2021/01/02 04:05:08;;;;;;;8.17;6.00;;;;;;;3.14;64.58;100631.90;1701218;83;21163;-91
2021/01/02 04:07:38;;;;;;;10.77;8.83;;;;;;;3.10;64.90;100635.28;1714006;82;21377;-92
2021/01/02 04:10:09;;;;;;;11.60;7.70;;;;;;;3.05;65.08;100647.17;1714382;82;21184;-91
2021/01/02 04:12:36;;;;;;;7.70;6.80;;;;;;;3.01;65.02;100643.14;1716551;82;21250;-92
2021/01/02 04:15:06;;;;;;;10.40;8.47;;;;;;;2.96;65.25;100651.91;1714850;82;21158;-90
2021/01/02 04:17:34;;;;;;;11.03;8.60;;;;;;;2.91;65.24;100652.32;1719524;82;21598;-92
2021/01/02 04:20:06;;;;;;;11.03;8.27;;;;;;;2.83;65.44;100659.55;1719246;82;21342;-91
2021/01/02 04:22:34;;;;;;;13.57;10.70;;;;;;;2.80;65.72;100657.66;1714566;82;21175;-92
2021/01/02 04:25:05;;;;;;;10.83;8.60;;;;;;;2.72;66.00;100664.41;1713156;82;21162;-92
2021/01/02 04:27:32;;;;;;;11.13;8.83;;;;;;;2.71;66.11;100667.16;1713170;82;21173;-90
2021/01/02 04:30:01;;;;;;;14.30;10.17;;;;;;;2.69;66.11;100671.27;1711072;82;21240;-91
2021/01/02 04:32:30;;;;;;;13.50;10.43;;;;;;;2.72;66.06;100676.74;1712171;82;21800;-90
2021/01/02 04:34:58;;;;;;;14.60;10.37;;;;;;;2.71;66.21;100673.74;1715209;82;21180;-90
2021/01/02 04:37:28;;;;;;;15.00;9.27;;;;;;;2.76;66.16;100679.46;1635100;84;21124;-91
2021/01/02 04:40:22;;;;;;;10.17;8.23;;;;;;;2.98;65.90;100684.25;1868786;75;22896;-92
2021/01/02 04:42:51;;;;;;;12.07;9.07;;;;;;;2.95;65.90;100685.81;1842696;76;21128;-92
2021/01/02 04:45:18;;;;;;;13.07;9.40;;;;;;;2.89;66.24;100692.43;1824758;76;21175;-91
2021/01/02 04:47:46;;;;;;;11.83;8.57;;;;;;;2.88;66.36;100699.97;1806660;78;22481;-91
2021/01/02 04:50:13;;;;;;;9.93;7.83;;;;;;;2.88;66.45;100695.55;1841259;76;21221;-93
2021/01/02 04:52:42;;;;;;;11.90;8.83;;;;;;;2.90;66.47;100700.20;1848094;76;21177;-93
2021/01/02 04:55:12;;;;;;;9.73;7.17;;;;;;;2.90;66.57;100696.25;1836765;76;21172;-93
2021/01/02 04:57:42;;;;;;;9.63;6.73;;;;;;;2.90;66.61;100704.16;1834381;76;21553;-91
2021/01/02 05:00:10;;;;;;;8.67;7.27;;;;;;;2.90;66.52;100714.69;1835087;76;21281;-91
2021/01/02 05:02:38;;;;;;;8.33;7.17;;;;;;;2.88;66.70;100708.72;1818089;77;21139;-91
2021/01/02 05:05:07;;;;;;;8.73;6.90;;;;;;;2.91;66.51;100705.80;1815987;77;21158;-93
2021/01/02 05:07:44;;;;;;;9.17;6.57;;;;;;;3.01;66.50;100707.66;1818983;78;21151;-96
2021/01/02 05:10:12;;;;;;;8.60;6.17;;;;;;;3.03;66.44;100717.59;1810834;78;21176;-91
2021/01/02 05:12:41;;;;;;;8.73;6.97;;;;;;;3.01;66.61;100730.05;1765745;79;21190;-92
2021/01/02 05:15:12;;;;;;;7.27;5.57;;;;;;;2.99;66.73;100726.22;1807729;78;21326;-91
2021/01/02 05:20:32;;;;;;;7.07;6.17;;;;;;;2.98;66.87;100729.02;1824122;77;22535;-93
2021/01/02 05:23:08;;;;;;;8.23;7.03;;;;;;;2.89;66.79;100740.65;1732318;81;21186;-92
2021/01/02 05:25:36;;;;;;;8.53;7.60;;;;;;;2.89;66.82;100743.28;1732964;82;21201;-92
2021/01/02 05:28:04;;;;;;;6.87;5.90;;;;;;;2.88;66.60;100748.21;1761172;80;21311;-90
2021/01/02 05:30:33;;;;;;;9.90;7.67;;;;;;;2.88;66.63;100749.99;1746304;82;21335;-90
2021/01/02 05:33:10;;;;;;;8.90;7.03;;;;;;;2.81;66.39;100757.58;1744747;80;21540;-91
2021/01/02 06:14:28;;;;;;;;;;;;;;;;;;;;;
2021/01/02 06:17:11;;;;;;;16.13;10.40;;;;;;;2.03;68.96;100828.37;1799885;77;23706;-92
2021/01/02 06:22:37;;;;;;;15.53;10.73;;;;;;;2.16;68.76;100835.64;1828224;76;24176;-93
2021/01/02 06:25:13;;;;;;;12.43;9.13;;;;;;;2.15;68.67;100845.83;1810152;78;21599;-94
2021/01/02 06:27:47;;;;;;;12.17;9.37;;;;;;;1.26;68.63;100701.20;1804861;78;21607;-91
2021/01/02 06:30:18;;;;;;;12.67;8.87;;;;;;;2.38;68.47;100853.20;1793453;78;21160;-88
2021/01/02 06:32:47;;;;;;;13.43;9.93;;;;;;;2.49;67.98;100858.92;1795412;78;21294;-88
2021/01/02 06:35:16;;;;;;;13.23;10.30;;;;;;;2.46;67.95;100857.35;1792349;78;21133;-91
2021/01/02 06:41:06;;;;;;;11.00;8.90;;;;;;;2.54;68.07;100860.68;1810142;77;23046;-86
2021/01/02 06:43:38;;;;;;;11.07;8.63;;;;;;;2.46;68.09;100862.62;1794333;78;21263;-86
2021/01/02 06:46:06;;;;;;;11.40;7.37;;;;;;;2.42;67.97;100861.68;1772973;78;21345;-91
2021/01/02 06:48:34;;;;;;;8.17;6.80;;;;;;;2.41;68.12;100871.37;1778104;78;22105;-85
2021/01/02 06:51:26;;;;;;;9.30;7.90;;;;;;;2.52;67.76;100871.81;1818493;78;21640;-86
2021/01/02 06:53:54;;;;;;;10.83;7.90;;;;;;;2.56;67.67;100877.67;1798200;78;21159;-92
2021/01/02 06:56:28;;;;;;;10.63;8.17;;;;;;;2.46;67.69;100871.00;1781763;78;21589;-89
2021/01/02 06:58:55;;;;;;;11.40;9.23;;;;;;;2.42;67.87;100886.67;1762757;80;21203;-86
2021/01/02 07:01:28;;;;;;;10.43;8.10;;;;;;;2.36;67.99;100885.86;1780374;79;21215;-86
2021/01/02 07:03:56;;;;;;;10.63;9.03;;;;;;;2.34;68.10;100889.92;1768109;79;21303;-86
2021/01/02 07:06:27;;;;;;;11.10;8.53;;;;;;;2.34;68.15;100885.97;1735810;79;21097;-89
2021/01/02 07:10:18;;;;;;;11.87;8.80;;;;;;;2.40;68.38;100896.00;1847404;76;22690;-85
2021/01/02 07:12:47;;;;;;;12.07;8.85;;;;;;;2.37;68.26;100904.13;1833086;77;21142;-83
2021/01/02 07:15:14;;;;;;;10.30;8.00;;;;;;;2.46;68.06;100905.20;1821350;77;21190;-88
2021/01/02 07:17:41;;;;;;;9.20;7.30;;;;;;;2.62;67.77;100909.61;1763748;79;21195;-84
2021/01/02 07:20:10;;;;;;;8.67;7.13;;;;;;;2.73;67.68;100908.73;1759300;80;21197;-86
2021/01/02 07:22:39;;;;;;;13.20;9.20;;;;;;;2.71;67.73;100905.39;1797003;79;21165;-83
2021/01/02 07:25:08;;;;;;;;;;;;;;;2.69;67.93;100905.99;1802290;79;21170;-86
2021/01/02 07:27:38;;;;;;;10.20;8.07;;;;;;;2.70;67.97;100907.68;1797000;79;20185;-85
2021/01/02 07:30:11;;;;;;;15.50;10.00;;;;;;;2.61;68.29;100911.05;1767653;80;21201;-87
2021/01/02 07:32:41;;;;;;;10.23;8.60;;;;;;;2.58;68.39;100919.17;1796636;79;21764;-86
2021/01/02 07:35:10;;;;;;;12.47;9.43;;;;;;;2.55;68.60;100920.27;1765200;80;21538;-90
2021/01/02 07:37:42;;;;;;;12.67;7.90;;;;;;;2.68;68.45;100924.08;1729675;81;21212;-87
2021/01/02 07:40:14;;;;;;;11.03;8.47;;;;;;;2.87;68.00;100926.06;1717664;81;21167;-87
2021/01/02 07:42:51;;;;;;;10.13;7.60;;;;;;;2.92;67.84;100930.00;1740126;80;21201;-89
2021/01/02 07:45:26;;;;;;;12.53;8.70;;;;;;;2.92;68.12;100936.59;1726140;81;21157;-86
2021/01/02 07:47:56;;;;;;;10.70;8.47;;;;;;;2.92;68.06;100932.64;1744656;80;21186;-90
2021/01/02 07:50:27;;;;;;;12.73;9.63;;;;;;;2.94;68.04;100945.69;1759067;79;21594;-88
2021/01/02 07:53:04;;;;;;;14.23;9.93;;;;;;;2.92;68.11;100949.75;1745716;80;21193;-86
2021/01/02 07:55:32;;;;;;;12.70;8.47;;;;;;;2.91;68.16;100950.70;1763713;79;21352;-88
2021/01/02 07:58:01;;;;;;;12.10;10.03;;;;;;;2.90;68.19;100960.03;1753299;80;21148;-86
2021/01/02 08:00:28;;;;;;;11.30;8.10;;;;;;;2.99;68.17;100963.24;1746293;80;21193;-88
2021/01/02 08:03:03;;;;;;;12.63;9.23;;;;;;;3.19;67.81;100966.91;1752997;79;21389;-87
2021/01/02 08:05:30;;;;;;;12.27;8.37;;;;;;;3.27;67.71;100964.97;1740020;80;21197;-88
2021/01/02 08:08:02;;;;;;;15.43;11.27;;;;;;;3.29;67.53;100966.50;1730451;80;21193;-87
2021/01/02 08:10:31;;;;;;;11.13;9.53;;;;;;;3.31;67.43;100959.33;1754943;79;21315;-89
2021/01/02 08:13:02;;;;;;;9.90;8.47;;;;;;;3.38;67.35;100975.46;1762612;79;21210;-87
2021/01/02 08:15:31;;;;;;;12.83;8.80;;;;;;;3.41;67.18;100976.99;1744453;80;21206;-89
2021/01/02 08:18:04;;;;;;;12.00;9.43;;;;;;;3.41;67.32;100982.27;1754577;79;21183;-89
2021/01/02 08:20:39;;;;;;;11.15;7.75;;;;;;;3.40;67.07;100982.75;1754479;80;21658;-89
2021/01/02 08:23:10;;;;;;;13.33;8.80;;;;;;;3.41;67.11;100982.27;1748235;80;21312;-89
2021/01/02 08:25:37;;;;;;;11.43;8.90;;;;;;;3.49;66.95;100984.64;1757619;80;21177;-88
2021/01/02 08:28:05;;;;;;;13.70;9.20;;;;;;;3.65;66.54;100986.83;1742282;80;21199;-88
2021/01/02 08:30:32;;;;;;;12.73;9.27;;;;;;;3.70;66.51;100986.47;1734804;80;21838;-89
2021/01/02 08:33:00;;;;;;;12.13;8.80;;;;;;;3.67;66.59;100988.88;1714460;83;21175;-88
2021/01/02 08:35:30;;;;;;;11.57;9.63;;;;;;;3.66;66.81;100986.37;1724696;81;21692;-88
2021/01/02 08:38:06;;;;;;;12.30;10.03;;;;;;;3.67;66.70;100994.16;1745602;80;21343;-86
2021/01/02 08:40:40;;;;;;;11.23;10.03;;;;;;;3.67;66.61;100999.89;1752701;80;21340;-89
2021/01/02 08:43:20;;;;;;;12.73;8.77;;;;;;;3.67;66.61;100991.52;1765003;80;21181;-89
2021/01/02 08:45:49;;;;;;;12.43;9.80;;;;;;;3.73;66.74;100994.13;1755512;80;21932;-92
2021/01/02 08:48:17;;;;;;;11.50;8.73;;;;;;;3.81;66.42;100997.44;1760444;80;21992;-89
2021/01/02 08:50:51;;;;;;;13.03;9.33;;;;;;;4.02;66.21;100996.12;1738860;80;21177;-90
2021/01/02 08:53:26;;;;;;;15.03;8.90;;;;;;;4.12;65.72;101000.13;1755562;80;21165;-88
2021/01/02 08:55:55;;;;;;;12.63;9.17;;;;;;;4.06;65.73;100998.35;1757142;80;21197;-91
2021/01/02 08:58:34;;;;;;;10.80;9.23;;;;;;;4.02;65.73;100993.48;1743826;80;21224;-89
2021/01/02 09:01:04;;;;;;;12.00;9.60;;;;;;;3.99;65.97;100997.19;1758052;80;21169;-88
2021/01/02 09:03:33;;;;;;;14.37;11.23;;;;;;;4.01;66.03;100991.80;1753511;80;21202;-84
2021/01/02 09:06:19;;;;;;;15.87;11.60;;;;;;;4.01;65.89;101007.16;1755254;79;21091;-89
2021/01/02 09:09:02;;;;;;;13.15;10.23;;;;;;;4.03;65.91;101004.37;1732576;80;21181;-88
2021/01/02 09:11:47;;;;;;;12.50;10.77;;;;;;;4.08;66.01;101004.33;1796660;78;23360;-87
2021/01/02 09:14:13;;;;;;;11.53;9.83;;;;;;;4.17;65.93;101008.50;1773700;79;21173;-85
2021/01/02 09:16:44;;;;;;;12.43;9.70;;;;;;;4.40;65.62;101003.39;1704309;82;21161;-87
2021/01/02 09:19:25;;;;;;;14.93;10.30;;;;;;;4.54;65.86;101007.50;1725709;81;21098;-89
2021/01/02 09:21:53;;;;;;;11.80;9.47;;;;;;;4.59;65.12;100997.85;1691243;83;22311;-89
2021/01/02 09:24:23;;;;;;;13.83;10.60;;;;;;;4.71;64.92;101012.64;1703040;83;21195;-91
2021/01/02 09:26:50;;;;;;;12.60;10.00;;;;;;;4.74;64.64;101007.57;1718393;81;21327;-90
2021/01/02 09:29:18;;;;;;;13.40;10.37;;;;;;;4.73;64.30;101004.09;1690353;84;21336;-91
2021/01/02 09:31:54;;;;;;;12.10;9.17;;;;;;;4.73;64.65;101007.20;1674827;84;21139;-90
2021/01/02 09:34:25;;;;;;;15.70;11.37;;;;;;;4.76;64.71;101014.38;1716272;82;21195;-90
2021/01/02 09:36:54;;;;;;;14.17;12.20;;;;;;;4.76;64.60;101009.59;1677136;81;21252;-92
2021/01/02 09:39:23;;;;;;;11.53;9.20;;;;;;;4.69;64.31;101006.66;1662234;84;21377;-95
2021/01/02 09:41:51;;;;;;;11.13;9.17;;;;;;;4.59;64.75;101010.56;1662720;85;21235;-93
2021/01/02 09:44:18;;;;;;;14.43;11.23;;;;;;;4.68;64.46;101012.90;1662017;85;21171;-91
2021/01/02 09:46:51;;;;;;;12.50;9.60;;;;;;;4.66;64.41;101006.42;1661457;85;21289;-94
2021/01/02 09:49:18;;;;;;;11.57;10.33;;;;;;;4.60;64.79;101012.74;1660111;85;21422;-92
2021/01/02 09:51:46;;;;;;;13.20;10.47;;;;;;;4.59;65.07;101013.69;1650330;85;21163;-92
2021/01/02 09:57:07;;;;;;;12.83;10.57;;;;;;;4.68;65.17;101019.50;1658258;85;21183;-91
2021/01/02 09:59:43;;;;;;;14.03;10.80;;;;;;;4.68;65.05;101022.97;1654959;83;21206;-91
2021/01/02 10:02:15;;;;;;;12.67;10.27;;;;;;;4.72;65.31;101028.83;1654973;86;21206;-93
2021/01/02 10:05:07;;;;;;;11.77;10.03;;;;;;;4.81;64.83;101028.52;1637963;86;21248;-92
2021/01/02 10:07:38;;;;;;;10.10;8.37;;;;;;;5.02;64.66;101020.02;1645016;86;21381;-92
2021/01/02 10:10:10;;;;;;;14.30;11.20;;;;;;;5.08;64.04;101021.28;1635792;86;21246;-89
2021/01/02 10:12:37;;;;;;;14.13;10.90;;;;;;;5.04;64.08;101019.89;1629590;87;21359;-89
2021/01/02 10:15:08;;;;;;;11.97;10.00;;;;;;;5.02;64.10;101017.88;1614582;87;22164;-91
2021/01/02 10:17:36;;;;;;;13.63;10.10;;;;;;;5.02;64.17;101020.52;1618941;88;21317;-93
2021/01/02 10:20:07;;;;;;;11.43;9.63;;;;;;;4.97;63.89;101021.39;1630041;86;21204;-90
2021/01/02 10:22:36;;;;;;;12.53;10.63;;;;;;;4.97;64.35;101017.43;1639700;87;21317;-90
2021/01/02 10:25:10;;;;;;;14.00;10.00;;;;;;;4.99;64.58;101019.45;1625176;87;21171;-92
2021/01/02 10:28:20;;;;;;;10.53;9.17;;;;;;;5.09;64.75;101019.00;1632680;87;21312;-94
2021/01/02 10:30:47;;;;;;;11.03;9.47;;;;;;;5.36;64.23;101016.19;1616679;88;21590;-93
2021/01/02 10:33:17;;;;;;;11.30;9.13;;;;;;;5.66;63.52;101021.84;1638647;87;21159;-90
2021/01/02 10:35:46;;;;;;;12.00;9.20;;;;;;;5.75;62.50;101018.85;1619753;84;21063;-89
2021/01/02 10:38:58;;;;;;;10.67;9.33;;;;;;;5.74;62.80;101021.14;1791303;77;22986;-93
2021/01/02 10:41:26;;;;;;;10.83;9.27;;;;;;;5.61;62.69;101014.80;1796134;77;21219;-95
2021/01/02 10:44:01;;;;;;;11.77;10.10;;;;;;;5.50;62.76;101016.26;1790092;77;21180;-92
2021/01/02 10:46:32;;;;;;;11.87;10.30;;;;;;;5.39;63.41;101016.75;1778443;78;21125;-93
2021/01/02 10:48:59;;;;;;;12.70;10.70;;;;;;;5.36;63.68;101018.83;1782973;79;21137;-90
2021/01/02 10:51:32;;;;;;;14.07;11.03;;;;;;;5.32;63.90;101029.34;1787771;79;21145;-89
2021/01/02 10:54:00;;;;;;;12.23;10.57;;;;;;;5.26;63.67;101018.33;1786341;79;21145;-91
2021/01/02 10:56:36;;;;;;;14.80;10.53;;;;;;;5.18;63.77;101018.66;1802730;79;21125;-90
2021/01/02 10:59:25;;;;;;;13.63;10.50;;;;;;;5.11;64.35;101027.63;1782635;78;21252;-90
2021/01/02 11:01:56;;;;;;;15.73;12.97;;;;;;;5.20;63.99;101024.17;1784905;77;21153;-91
2021/01/02 11:05:10;;;;;;;13.20;9.97;;;;;;;5.20;64.07;101031.27;1726922;81;21124;-91
2021/01/02 11:07:49;;;;;;;11.22;10.05;;;;;;;5.13;64.23;101023.04;1721291;79;21190;-92
2021/01/02 11:10:22;;;;;;;13.10;10.47;;;;;;;4.69;64.23;100961.77;1741344;81;21188;-93
2021/01/02 11:12:54;;;;;;;15.63;10.70;;;;;;;5.02;64.75;101025.80;1745701;80;21163;-92
2021/01/02 11:15:23;;;;;;;14.70;11.37;;;;;;;4.98;64.89;101017.30;1694274;82;21184;-92
2021/01/02 11:17:55;;;;;;;11.73;9.93;;;;;;;4.95;64.81;101018.88;1718041;82;21337;-93
2021/01/02 11:20:47;;;;;;;13.07;10.17;;;;;;;4.96;65.07;101025.02;1705589;83;21177;-91
2021/01/02 11:23:20;;;;;;;13.43;10.13;;;;;;;5.08;65.07;101022.60;1723828;81;21237;-93
2021/01/02 11:25:49;;;;;;;13.70;10.87;;;;;;;5.14;64.36;101021.22;1751241;80;21097;-93
2021/01/02 11:28:19;;;;;;;13.67;11.17;;;;;;;5.09;64.73;101032.71;1743377;80;21176;-89
2021/01/02 11:30:46;;;;;;;12.20;10.03;;;;;;;5.03;64.97;101035.41;1749028;80;21228;-90
2021/01/02 11:33:13;;;;;;;12.20;10.90;;;;;;;4.99;65.09;101030.02;1761852;79;21780;-91
2021/01/02 11:35:45;;;;;;;14.30;10.90;;;;;;;4.98;65.42;101037.61;1741660;82;21228;-92
2021/01/02 11:38:18;;;;;;;13.40;9.40;;;;;;;4.99;65.63;101033.52;1724145;82;21324;-89
2021/01/02 11:40:51;;;;;;;15.27;10.77;;;;;;;5.13;65.61;101031.47;1712431;83;21347;-93
2021/01/02 11:43:21;;;;;;;13.33;11.27;;;;;;;5.29;64.93;101037.53;1739650;80;21125;-90
2021/01/02 11:46:33;;;;;;;16.27;11.87;;;;;;;5.27;65.14;101031.05;1897600;73;23309;-92
2021/01/02 11:49:05;;;;;;;17.47;13.20;;;;;;;5.20;65.32;101029.95;1816777;77;21203;-90
2021/01/02 11:51:54;;;;;;;16.27;12.13;;;;;;;5.16;65.60;101036.00;1839621;76;21175;-93
2021/01/02 11:54:22;;;;;;;15.93;11.47;;;;;;;5.13;65.44;101040.22;1812666;77;21173;-91
2021/01/02 11:56:50;;;;;;;16.13;11.30;;;;;;;5.11;65.57;101041.34;1824902;76;21164;-90
2021/01/02 11:59:21;;;;;;;15.80;11.27;;;;;;;5.16;65.54;101039.09;1814772;76;21206;-94
2021/01/02 12:02:11;;;;;;;22.30;11.60;;;;;;;5.36;65.12;101038.16;1757128;79;22682;-91
2021/01/02 12:04:51;;;;;;;14.53;10.87;;;;;;;5.31;65.10;101039.55;1751877;80;21563;-92
2021/01/02 12:07:25;;;;;;;14.17;10.77;;;;;;;5.31;65.20;101042.19;1672970;82;21306;-92
2021/01/02 12:10:04;;;;;;;13.63;10.83;;;;;;;5.34;65.29;101051.19;1667779;84;21188;-91
2021/01/02 12:12:31;;;;;;;15.50;11.95;;;;;;;5.32;65.29;101055.28;1674120;84;21196;-91
2021/01/02 12:15:01;;;;;;;16.33;11.23;;;;;;;5.26;65.39;101052.70;1671328;84;21369;-91
2021/01/02 12:17:29;;;;;;;14.83;11.30;;;;;;;5.20;65.58;101063.81;1689438;81;21302;-91
2021/01/02 12:20:03;;;;;;;18.23;13.00;;;;;;;5.25;65.57;101059.43;1671498;83;21169;-91
2021/01/02 12:22:33;;;;;;;15.90;12.50;;;;;;;5.20;65.57;101051.92;1668954;83;21173;-94
2021/01/02 12:25:10;;;;;;;14.85;12.25;;;;;;;5.13;65.96;101061.85;1666215;82;21227;-94
2021/01/02 12:27:40;;;;;;;18.67;11.50;;;;;;;5.07;66.22;101063.23;1677327;83;21145;-93
2021/01/02 12:30:11;;;;;;;17.13;12.67;;;;;;;5.03;66.43;101062.66;1673069;85;21234;-93
2021/01/02 12:32:41;;;;;;;13.03;10.20;;;;;;;5.01;66.55;101057.14;1666303;84;21204;-92
2021/01/02 12:35:12;;;;;;;18.20;12.17;;;;;;;5.17;66.35;101070.69;1668027;83;21172;-92
2021/01/02 12:37:42;;;;;;;12.77;10.57;;;;;;;5.26;65.92;101063.27;1663879;85;21221;-91
2021/01/02 12:40:12;;;;;;;13.27;10.63;;;;;;;5.25;65.82;101073.97;1657300;85;21392;-92
2021/01/02 12:42:40;;;;;;;13.53;11.13;;;;;;;5.22;65.95;101079.05;1683029;84;21746;-91
2021/01/02 12:45:26;;;;;;;12.73;11.20;;;;;;;5.19;65.72;101079.31;1686901;84;21347;-90
2021/01/02 12:47:54;;;;;;;14.73;11.63;;;;;;;5.14;65.93;101078.05;1690861;84;21220;-93
2021/01/02 12:50:31;;;;;;;13.83;11.17;;;;;;;5.12;66.15;101075.53;1665487;85;21554;-94
2021/01/02 12:53:01;;;;;;;13.30;10.10;;;;;;;5.17;65.90;101086.55;1631351;86;21226;-90
2021/01/02 12:55:31;;;;;;;12.73;10.57;;;;;;;5.34;65.53;101082.41;1666685;85;21215;-89
2021/01/02 12:58:07;;;;;;;16.00;11.73;;;;;;;5.33;65.19;101079.90;1635968;85;21158;-89
2021/01/02 13:00:46;;;;;;;13.67;11.17;;;;;;;5.23;65.45;101082.03;1662799;85;21364;-90
2021/01/02 13:03:32;;;;;;;17.00;11.20;;;;;;;5.12;65.86;101084.78;1654014;85;21626;-90
2021/01/02 13:06:14;;;;;;;16.53;11.57;;;;;;;5.07;66.10;101084.37;1652507;85;21103;-93
2021/01/02 13:09:01;;;;;;;12.43;11.03;;;;;;;5.04;66.12;101089.91;1550249;88;21378;-90
2021/01/02 13:11:29;;;;;;;15.27;12.20;;;;;;;4.97;66.44;101089.62;1569091;90;21373;-88
2021/01/02 13:14:03;;;;;;;12.03;9.97;;;;;;;4.99;66.36;101088.14;1565233;90;21299;-90
2021/01/02 13:16:31;;;;;;;14.90;11.70;;;;;;;5.11;66.27;101099.48;1568616;90;21248;-88
2021/01/02 13:19:07;;;;;;;13.73;10.40;;;;;;;5.07;66.20;101100.23;1568147;90;21227;-89
2021/01/02 13:21:35;;;;;;;12.43;9.90;;;;;;;5.00;66.17;101103.05;1557809;91;21176;-90
2021/01/02 13:24:08;;;;;;;14.30;11.10;;;;;;;4.96;66.13;101104.28;1565989;90;21231;-90
2021/01/02 13:26:38;;;;;;;12.63;11.00;;;;;;;4.90;66.26;101119.32;1525283;93;21369;-90
2021/01/02 13:29:08;;;;;;;14.00;10.47;;;;;;;4.81;66.52;101112.55;1494559;91;21466;-90
2021/01/02 13:31:53;;;;;;;16.27;11.60;;;;;;;4.79;66.61;101118.45;1530915;91;21243;-89
2021/01/02 13:34:38;;;;;;;12.07;10.80;;;;;;;4.92;66.32;101119.56;1813822;77;22672;-89
2021/01/02 13:37:07;;;;;;;14.27;10.23;;;;;;;4.86;66.47;101126.20;1715620;79;21107;-92
2021/01/02 13:39:35;;;;;;;14.27;11.03;;;;;;;4.77;66.76;101127.00;1728018;81;21520;-89
2021/01/02 13:42:10;;;;;;;12.70;11.27;;;;;;;4.72;67.07;101124.39;1727485;82;21702;-88